Terminal Aerodrome Forecast
Issued by NWS Omaha/Valley, NE

Home | Current Version | Previous Version | Text Only | Print | Product List | Glossary On
Versions: 1 2 3 4 5 6 7 8 9 10 11 12 13 14 15 16 17 18 19 20 21 22 23 24 25 26 27 28 29 30 31 32 33 34 35 36
000
FTUS43 KOAX 211125
TAFLNK
TAF
KLNK 211125Z 2112/2212 16006KT P6SM BKN250
     FM211700 17010KT P6SM SCT020 OVC100
      TEMPO 2120/2124 BKN020
     FM220000 16005KT 5SM BR OVC018
      TEMPO 2202/2206 2SM BR OVC008
     FM220600 19005KT 3SM BR OVC008=

USA.gov is the U.S. government's official web portal to all federal, state and local government web resources and services.